sensor_id;sensor_type;location;lat;lon;timestamp;P1;durP1;ratioP1;P2;durP2;ratioP2
2225;SDS011;1119;48.288;8.726;2024-02-16T00:00:07;20.17;;;2.47;;
2225;SDS011;1119;48.288;8.726;2024-02-16T00:02:40;20.27;;;2.50;;
2225;SDS011;1119;48.288;8.726;2024-02-16T00:05:09;20.27;;;2.50;;
2225;SDS011;1119;48.288;8.726;2024-02-16T00:07:38;20.23;;;2.40;;
2225;SDS011;1119;48.288;8.726;2024-02-16T00:10:06;20.17;;;2.40;;
2225;SDS011;1119;48.288;8.726;2024-02-16T00:12:35;20.30;;;2.50;;
2225;SDS011;1119;48.288;8.726;2024-02-16T00:15:03;20.20;;;2.57;;
2225;SDS011;1119;48.288;8.726;2024-02-16T00:17:31;20.10;;;2.70;;
2225;SDS011;1119;48.288;8.726;2024-02-16T00:20:00;20.20;;;2.60;;
2225;SDS011;1119;48.288;8.726;2024-02-16T00:22:28;20.37;;;2.67;;
2225;SDS011;1119;48.288;8.726;2024-02-16T00:24:56;20.20;;;2.30;;
2225;SDS011;1119;48.288;8.726;2024-02-16T00:27:23;20.23;;;2.30;;
2225;SDS011;1119;48.288;8.726;2024-02-16T00:29:50;20.30;;;2.43;;
2225;SDS011;1119;48.288;8.726;2024-02-16T00:32:18;20.23;;;2.43;;
2225;SDS011;1119;48.288;8.726;2024-02-16T00:34:45;20.27;;;2.33;;
2225;SDS011;1119;48.288;8.726;2024-02-16T00:37:13;20.10;;;2.43;;
2225;SDS011;1119;48.288;8.726;2024-02-16T00:39:41;20.27;;;2.43;;
2225;SDS011;1119;48.288;8.726;2024-02-16T00:42:08;20.20;;;2.53;;
2225;SDS011;1119;48.288;8.726;2024-02-16T00:44:36;20.20;;;2.40;;
2225;SDS011;1119;48.288;8.726;2024-02-16T00:47:04;20.20;;;2.57;;
2225;SDS011;1119;48.288;8.726;2024-02-16T00:49:32;20.20;;;2.40;;
2225;SDS011;1119;48.288;8.726;2024-02-16T00:51:59;20.00;;;2.40;;
2225;SDS011;1119;48.288;8.726;2024-02-16T00:54:28;20.27;;;2.50;;
2225;SDS011;1119;48.288;8.726;2024-02-16T00:56:55;20.13;;;2.27;;
2225;SDS011;1119;48.288;8.726;2024-02-16T00:59:26;20.20;;;2.50;;
2225;SDS011;1119;48.288;8.726;2024-02-16T01:01:54;20.17;;;2.70;;
2225;SDS011;1119;48.288;8.726;2024-02-16T01:04:21;20.13;;;2.50;;
2225;SDS011;1119;48.288;8.726;2024-02-16T01:06:48;20.30;;;2.47;;
2225;SDS011;1119;48.288;8.726;2024-02-16T01:09:16;20.17;;;2.70;;
2225;SDS011;1119;48.288;8.726;2024-02-16T01:11:44;20.30;;;2.70;;
2225;SDS011;1119;48.288;8.726;2024-02-16T01:14:12;20.20;;;2.33;;
2225;SDS011;1119;48.288;8.726;2024-02-16T01:16:39;20.13;;;2.37;;
2225;SDS011;1119;48.288;8.726;2024-02-16T01:19:06;20.20;;;2.80;;
2225;SDS011;1119;48.288;8.726;2024-02-16T01:21:35;20.17;;;2.53;;
2225;SDS011;1119;48.288;8.726;2024-02-16T01:24:02;20.27;;;2.60;;
2225;SDS011;1119;48.288;8.726;2024-02-16T01:26:30;20.20;;;2.70;;
2225;SDS011;1119;48.288;8.726;2024-02-16T01:28:59;20.17;;;2.23;;
2225;SDS011;1119;48.288;8.726;2024-02-16T01:31:27;20.10;;;2.43;;
2225;SDS011;1119;48.288;8.726;2024-02-16T01:33:54;20.20;;;2.57;;
2225;SDS011;1119;48.288;8.726;2024-02-16T01:36:22;20.17;;;2.50;;
2225;SDS011;1119;48.288;8.726;2024-02-16T01:38:49;20.13;;;2.30;;
2225;SDS011;1119;48.288;8.726;2024-02-16T01:41:16;20.20;;;2.47;;
2225;SDS011;1119;48.288;8.726;2024-02-16T01:43:44;20.00;;;2.40;;
2225;SDS011;1119;48.288;8.726;2024-02-16T01:46:12;20.10;;;2.37;;
2225;SDS011;1119;48.288;8.726;2024-02-16T01:48:40;20.13;;;2.33;;
2225;SDS011;1119;48.288;8.726;2024-02-16T01:51:07;20.20;;;2.40;;
2225;SDS011;1119;48.288;8.726;2024-02-16T01:53:36;20.30;;;2.57;;
2225;SDS011;1119;48.288;8.726;2024-02-16T01:56:04;20.23;;;2.53;;
2225;SDS011;1119;48.288;8.726;2024-02-16T01:58:32;20.20;;;2.03;;
2225;SDS011;1119;48.288;8.726;2024-02-16T02:01:00;20.10;;;2.37;;
2225;SDS011;1119;48.288;8.726;2024-02-16T02:03:29;20.10;;;2.10;;
2225;SDS011;1119;48.288;8.726;2024-02-16T02:05:56;20.20;;;2.40;;
2225;SDS011;1119;48.288;8.726;2024-02-16T02:08:24;20.10;;;2.03;;
2225;SDS011;1119;48.288;8.726;2024-02-16T02:10:52;20.00;;;2.07;;
2225;SDS011;1119;48.288;8.726;2024-02-16T02:13:19;20.13;;;2.07;;
2225;SDS011;1119;48.288;8.726;2024-02-16T02:15:47;20.17;;;2.30;;
2225;SDS011;1119;48.288;8.726;2024-02-16T02:18:15;20.00;;;2.00;;
2225;SDS011;1119;48.288;8.726;2024-02-16T02:20:43;20.10;;;2.13;;
2225;SDS011;1119;48.288;8.726;2024-02-16T02:23:12;20.10;;;2.40;;
2225;SDS011;1119;48.288;8.726;2024-02-16T02:25:39;20.07;;;2.00;;
2225;SDS011;1119;48.288;8.726;2024-02-16T02:28:06;20.20;;;2.60;;
2225;SDS011;1119;48.288;8.726;2024-02-16T02:30:34;20.27;;;2.50;;
2225;SDS011;1119;48.288;8.726;2024-02-16T02:33:03;20.20;;;2.60;;
2225;SDS011;1119;48.288;8.726;2024-02-16T02:35:31;20.23;;;2.37;;
2225;SDS011;1119;48.288;8.726;2024-02-16T02:37:58;20.27;;;2.63;;
2225;SDS011;1119;48.288;8.726;2024-02-16T02:40:26;20.20;;;2.23;;
2225;SDS011;1119;48.288;8.726;2024-02-16T02:42:54;20.20;;;2.50;;
2225;SDS011;1119;48.288;8.726;2024-02-16T02:45:21;20.30;;;2.60;;
2225;SDS011;1119;48.288;8.726;2024-02-16T02:47:48;20.23;;;2.50;;
2225;SDS011;1119;48.288;8.726;2024-02-16T02:50:15;20.10;;;2.13;;
2225;SDS011;1119;48.288;8.726;2024-02-16T02:52:43;20.20;;;2.67;;
2225;SDS011;1119;48.288;8.726;2024-02-16T02:55:11;20.17;;;2.50;;
2225;SDS011;1119;48.288;8.726;2024-02-16T02:57:40;20.00;;;2.67;;
2225;SDS011;1119;48.288;8.726;2024-02-16T03:00:07;20.17;;;2.53;;
2225;SDS011;1119;48.288;8.726;2024-02-16T03:02:36;20.23;;;2.40;;
2225;SDS011;1119;48.288;8.726;2024-02-16T03:05:04;20.23;;;2.50;;
2225;SDS011;1119;48.288;8.726;2024-02-16T03:07:33;20.23;;;2.50;;
2225;SDS011;1119;48.288;8.726;2024-02-16T03:10:01;20.20;;;2.87;;
2225;SDS011;1119;48.288;8.726;2024-02-16T03:12:29;20.10;;;2.47;;
2225;SDS011;1119;48.288;8.726;2024-02-16T03:15:00;20.17;;;2.63;;
2225;SDS011;1119;48.288;8.726;2024-02-16T03:17:27;20.20;;;2.57;;
2225;SDS011;1119;48.288;8.726;2024-02-16T03:19:54;20.27;;;2.50;;
2225;SDS011;1119;48.288;8.726;2024-02-16T03:22:22;20.30;;;2.70;;
2225;SDS011;1119;48.288;8.726;2024-02-16T03:24:49;20.10;;;2.50;;
2225;SDS011;1119;48.288;8.726;2024-02-16T03:27:16;20.30;;;2.80;;
2225;SDS011;1119;48.288;8.726;2024-02-16T03:29:43;20.30;;;2.57;;
2225;SDS011;1119;48.288;8.726;2024-02-16T03:32:12;20.00;;;2.23;;
2225;SDS011;1119;48.288;8.726;2024-02-16T03:34:39;20.20;;;2.47;;
2225;SDS011;1119;48.288;8.726;2024-02-16T03:37:06;20.20;;;2.33;;
2225;SDS011;1119;48.288;8.726;2024-02-16T03:39:34;20.40;;;2.60;;
2225;SDS011;1119;48.288;8.726;2024-02-16T03:42:02;20.30;;;2.50;;
2225;SDS011;1119;48.288;8.726;2024-02-16T03:44:30;20.13;;;2.50;;
2225;SDS011;1119;48.288;8.726;2024-02-16T03:46:57;20.27;;;2.40;;
2225;SDS011;1119;48.288;8.726;2024-02-16T03:49:26;20.20;;;2.30;;
2225;SDS011;1119;48.288;8.726;2024-02-16T03:51:54;20.20;;;2.30;;
2225;SDS011;1119;48.288;8.726;2024-02-16T03:54:21;20.27;;;2.30;;
2225;SDS011;1119;48.288;8.726;2024-02-16T03:56:52;20.23;;;2.40;;
2225;SDS011;1119;48.288;8.726;2024-02-16T03:59:20;20.23;;;2.47;;
2225;SDS011;1119;48.288;8.726;2024-02-16T04:01:49;20.23;;;2.27;;
2225;SDS011;1119;48.288;8.726;2024-02-16T04:04:17;20.10;;;2.10;;
2225;SDS011;1119;48.288;8.726;2024-02-16T04:06:46;20.17;;;2.30;;
2225;SDS011;1119;48.288;8.726;2024-02-16T04:09:13;20.30;;;2.27;;
2225;SDS011;1119;48.288;8.726;2024-02-16T04:11:40;20.17;;;2.37;;
2225;SDS011;1119;48.288;8.726;2024-02-16T04:14:08;20.17;;;2.10;;
2225;SDS011;1119;48.288;8.726;2024-02-16T04:16:36;20.10;;;2.53;;
2225;SDS011;1119;48.288;8.726;2024-02-16T04:19:03;20.20;;;2.63;;
2225;SDS011;1119;48.288;8.726;2024-02-16T04:21:31;20.27;;;2.50;;
2225;SDS011;1119;48.288;8.726;2024-02-16T04:23:59;20.20;;;2.10;;
2225;SDS011;1119;48.288;8.726;2024-02-16T04:26:27;20.27;;;2.40;;
2225;SDS011;1119;48.288;8.726;2024-02-16T04:28:54;20.27;;;2.30;;
2225;SDS011;1119;48.288;8.726;2024-02-16T04:31:21;20.30;;;2.50;;
2225;SDS011;1119;48.288;8.726;2024-02-16T04:33:48;20.23;;;2.30;;
2225;SDS011;1119;48.288;8.726;2024-02-16T04:36:15;20.10;;;2.10;;
2225;SDS011;1119;48.288;8.726;2024-02-16T04:38:43;20.20;;;2.43;;
2225;SDS011;1119;48.288;8.726;2024-02-16T04:41:12;20.27;;;2.20;;
2225;SDS011;1119;48.288;8.726;2024-02-16T04:43:40;20.10;;;2.13;;
2225;SDS011;1119;48.288;8.726;2024-02-16T04:46:07;20.17;;;2.30;;
2225;SDS011;1119;48.288;8.726;2024-02-16T04:48:40;20.03;;;2.20;;
2225;SDS011;1119;48.288;8.726;2024-02-16T04:51:07;20.07;;;2.07;;
2225;SDS011;1119;48.288;8.726;2024-02-16T04:53:35;20.23;;;2.40;;
2225;SDS011;1119;48.288;8.726;2024-02-16T04:56:02;20.27;;;2.30;;
2225;SDS011;1119;48.288;8.726;2024-02-16T04:58:31;20.30;;;2.60;;
2225;SDS011;1119;48.288;8.726;2024-02-16T05:00:59;20.20;;;2.40;;
2225;SDS011;1119;48.288;8.726;2024-02-16T05:03:26;20.20;;;2.33;;
2225;SDS011;1119;48.288;8.726;2024-02-16T05:05:53;20.20;;;2.33;;
2225;SDS011;1119;48.288;8.726;2024-02-16T05:08:21;20.23;;;2.37;;
2225;SDS011;1119;48.288;8.726;2024-02-16T05:10:48;20.20;;;2.17;;
2225;SDS011;1119;48.288;8.726;2024-02-16T05:13:16;20.37;;;2.73;;
2225;SDS011;1119;48.288;8.726;2024-02-16T05:15:44;20.30;;;2.50;;
2225;SDS011;1119;48.288;8.726;2024-02-16T05:18:14;20.30;;;3.00;;
2225;SDS011;1119;48.288;8.726;2024-02-16T05:20:43;20.27;;;2.63;;
2225;SDS011;1119;48.288;8.726;2024-02-16T05:23:10;20.27;;;2.70;;
2225;SDS011;1119;48.288;8.726;2024-02-16T05:25:37;20.27;;;2.43;;
2225;SDS011;1119;48.288;8.726;2024-02-16T05:28:04;20.23;;;2.53;;
2225;SDS011;1119;48.288;8.726;2024-02-16T05:30:32;20.30;;;2.80;;
2225;SDS011;1119;48.288;8.726;2024-02-16T05:33:01;20.17;;;2.33;;
2225;SDS011;1119;48.288;8.726;2024-02-16T05:35:28;19.90;;;2.50;;
2225;SDS011;1119;48.288;8.726;2024-02-16T05:37:59;20.17;;;2.50;;
2225;SDS011;1119;48.288;8.726;2024-02-16T05:40:32;20.33;;;2.83;;
2225;SDS011;1119;48.288;8.726;2024-02-16T05:43:10;20.33;;;2.57;;
2225;SDS011;1119;48.288;8.726;2024-02-16T05:45:38;20.10;;;2.13;;
2225;SDS011;1119;48.288;8.726;2024-02-16T05:48:08;20.20;;;2.30;;
2225;SDS011;1119;48.288;8.726;2024-02-16T05:50:36;20.30;;;2.53;;
2225;SDS011;1119;48.288;8.726;2024-02-16T05:53:03;20.23;;;2.47;;
2225;SDS011;1119;48.288;8.726;2024-02-16T05:55:31;20.20;;;2.20;;
2225;SDS011;1119;48.288;8.726;2024-02-16T05:57:59;20.20;;;2.37;;
2225;SDS011;1119;48.288;8.726;2024-02-16T06:00:27;20.27;;;2.60;;
2225;SDS011;1119;48.288;8.726;2024-02-16T06:02:54;20.27;;;2.33;;
2225;SDS011;1119;48.288;8.726;2024-02-16T06:05:23;20.17;;;2.60;;
2225;SDS011;1119;48.288;8.726;2024-02-16T06:07:50;20.27;;;2.50;;
2225;SDS011;1119;48.288;8.726;2024-02-16T06:10:18;20.30;;;2.47;;
2225;SDS011;1119;48.288;8.726;2024-02-16T06:12:45;20.13;;;2.17;;
2225;SDS011;1119;48.288;8.726;2024-02-16T06:15:12;20.27;;;2.30;;
2225;SDS011;1119;48.288;8.726;2024-02-16T06:17:40;20.20;;;2.50;;
2225;SDS011;1119;48.288;8.726;2024-02-16T06:20:07;20.23;;;2.73;;
2225;SDS011;1119;48.288;8.726;2024-02-16T06:22:37;20.13;;;2.10;;
2225;SDS011;1119;48.288;8.726;2024-02-16T06:25:05;20.07;;;2.27;;
2225;SDS011;1119;48.288;8.726;2024-02-16T06:27:33;20.33;;;2.87;;
2225;SDS011;1119;48.288;8.726;2024-02-16T06:30:01;20.20;;;2.70;;
2225;SDS011;1119;48.288;8.726;2024-02-16T06:32:29;20.27;;;2.53;;
2225;SDS011;1119;48.288;8.726;2024-02-16T06:34:57;20.10;;;2.70;;
2225;SDS011;1119;48.288;8.726;2024-02-16T06:37:24;20.23;;;2.47;;
2225;SDS011;1119;48.288;8.726;2024-02-16T06:39:52;20.17;;;2.50;;
2225;SDS011;1119;48.288;8.726;2024-02-16T06:42:20;20.30;;;2.87;;
2225;SDS011;1119;48.288;8.726;2024-02-16T06:44:47;20.20;;;2.40;;
2225;SDS011;1119;48.288;8.726;2024-02-16T06:47:14;20.20;;;2.40;;
2225;SDS011;1119;48.288;8.726;2024-02-16T06:49:42;20.23;;;2.33;;
2225;SDS011;1119;48.288;8.726;2024-02-16T06:52:09;20.20;;;2.30;;
2225;SDS011;1119;48.288;8.726;2024-02-16T06:54:36;20.10;;;2.10;;
2225;SDS011;1119;48.288;8.726;2024-02-16T06:57:05;20.17;;;2.23;;
2225;SDS011;1119;48.288;8.726;2024-02-16T06:59:32;20.13;;;2.30;;
2225;SDS011;1119;48.288;8.726;2024-02-16T07:02:00;20.10;;;2.13;;
2225;SDS011;1119;48.288;8.726;2024-02-16T07:04:27;20.13;;;2.20;;
2225;SDS011;1119;48.288;8.726;2024-02-16T07:06:55;20.23;;;2.60;;
2225;SDS011;1119;48.288;8.726;2024-02-16T07:09:22;20.30;;;2.60;;
2225;SDS011;1119;48.288;8.726;2024-02-16T07:11:49;20.10;;;2.20;;
2225;SDS011;1119;48.288;8.726;2024-02-16T07:14:19;20.10;;;2.40;;
2225;SDS011;1119;48.288;8.726;2024-02-16T07:16:46;20.10;;;2.70;;
2225;SDS011;1119;48.288;8.726;2024-02-16T07:19:13;20.30;;;2.60;;
2225;SDS011;1119;48.288;8.726;2024-02-16T07:21:41;20.20;;;2.23;;
2225;SDS011;1119;48.288;8.726;2024-02-16T07:24:09;20.20;;;2.33;;
2225;SDS011;1119;48.288;8.726;2024-02-16T07:26:37;20.13;;;2.30;;
2225;SDS011;1119;48.288;8.726;2024-02-16T07:29:04;20.13;;;2.40;;
2225;SDS011;1119;48.288;8.726;2024-02-16T07:31:33;20.20;;;2.67;;
2225;SDS011;1119;48.288;8.726;2024-02-16T07:34:02;20.23;;;2.63;;
2225;SDS011;1119;48.288;8.726;2024-02-16T07:36:29;20.20;;;2.33;;
2225;SDS011;1119;48.288;8.726;2024-02-16T07:38:57;20.20;;;2.70;;
2225;SDS011;1119;48.288;8.726;2024-02-16T07:41:25;20.07;;;2.10;;
2225;SDS011;1119;48.288;8.726;2024-02-16T07:43:53;20.07;;;2.40;;
2225;SDS011;1119;48.288;8.726;2024-02-16T07:46:20;20.10;;;2.40;;
2225;SDS011;1119;48.288;8.726;2024-02-16T07:48:49;20.13;;;2.20;;
2225;SDS011;1119;48.288;8.726;2024-02-16T07:51:17;20.17;;;2.20;;
2225;SDS011;1119;48.288;8.726;2024-02-16T07:53:44;20.10;;;2.37;;
2225;SDS011;1119;48.288;8.726;2024-02-16T07:56:11;20.10;;;2.23;;
2225;SDS011;1119;48.288;8.726;2024-02-16T07:58:40;20.20;;;2.60;;
2225;SDS011;1119;48.288;8.726;2024-02-16T08:01:08;20.20;;;2.57;;
2225;SDS011;1119;48.288;8.726;2024-02-16T08:03:36;20.20;;;2.60;;
2225;SDS011;1119;48.288;8.726;2024-02-16T08:06:05;20.10;;;2.53;;
2225;SDS011;1119;48.288;8.726;2024-02-16T08:08:33;20.10;;;2.50;;
2225;SDS011;1119;48.288;8.726;2024-02-16T08:11:00;20.27;;;2.77;;
2225;SDS011;1119;48.288;8.726;2024-02-16T08:13:28;20.17;;;2.63;;
2225;SDS011;1119;48.288;8.726;2024-02-16T08:15:55;20.10;;;2.33;;
2225;SDS011;1119;48.288;8.726;2024-02-16T08:18:23;20.27;;;2.60;;
2225;SDS011;1119;48.288;8.726;2024-02-16T08:20:50;20.17;;;2.50;;
2225;SDS011;1119;48.288;8.726;2024-02-16T08:23:19;20.27;;;2.57;;
2225;SDS011;1119;48.288;8.726;2024-02-16T08:25:46;20.17;;;2.60;;
2225;SDS011;1119;48.288;8.726;2024-02-16T08:28:14;20.13;;;2.67;;
2225;SDS011;1119;48.288;8.726;2024-02-16T08:30:41;20.23;;;2.33;;
2225;SDS011;1119;48.288;8.726;2024-02-16T08:33:09;20.10;;;2.60;;
2225;SDS011;1119;48.288;8.726;2024-02-16T08:35:38;20.00;;;2.33;;
2225;SDS011;1119;48.288;8.726;2024-02-16T08:38:05;20.10;;;2.60;;
2225;SDS011;1119;48.288;8.726;2024-02-16T08:40:37;20.20;;;2.50;;
2225;SDS011;1119;48.288;8.726;2024-02-16T08:43:04;20.27;;;2.70;;
2225;SDS011;1119;48.288;8.726;2024-02-16T08:45:32;20.10;;;2.50;;
2225;SDS011;1119;48.288;8.726;2024-02-16T08:48:00;20.20;;;2.57;;
2225;SDS011;1119;48.288;8.726;2024-02-16T08:50:29;20.30;;;2.70;;
2225;SDS011;1119;48.288;8.726;2024-02-16T08:52:56;20.20;;;2.60;;
2225;SDS011;1119;48.288;8.726;2024-02-16T08:55:24;20.27;;;2.60;;
2225;SDS011;1119;48.288;8.726;2024-02-16T08:57:53;20.17;;;2.80;;
2225;SDS011;1119;48.288;8.726;2024-02-16T09:00:20;20.30;;;2.53;;
2225;SDS011;1119;48.288;8.726;2024-02-16T09:02:48;20.13;;;2.50;;
2225;SDS011;1119;48.288;8.726;2024-02-16T09:05:16;20.30;;;2.63;;
2225;SDS011;1119;48.288;8.726;2024-02-16T09:07:43;20.30;;;2.43;;
2225;SDS011;1119;48.288;8.726;2024-02-16T09:10:12;20.23;;;2.40;;
2225;SDS011;1119;48.288;8.726;2024-02-16T09:12:40;20.30;;;2.70;;
2225;SDS011;1119;48.288;8.726;2024-02-16T09:15:09;20.27;;;2.60;;
2225;SDS011;1119;48.288;8.726;2024-02-16T09:17:37;20.20;;;2.80;;
2225;SDS011;1119;48.288;8.726;2024-02-16T09:20:05;20.30;;;2.63;;
2225;SDS011;1119;48.288;8.726;2024-02-16T09:22:34;20.30;;;2.73;;
2225;SDS011;1119;48.288;8.726;2024-02-16T09:25:02;20.30;;;2.57;;
2225;SDS011;1119;48.288;8.726;2024-02-16T09:27:29;20.30;;;2.90;;
2225;SDS011;1119;48.288;8.726;2024-02-16T09:29:57;20.20;;;2.80;;
2225;SDS011;1119;48.288;8.726;2024-02-16T09:32:25;20.20;;;2.50;;
2225;SDS011;1119;48.288;8.726;2024-02-16T09:34:53;20.20;;;2.20;;
2225;SDS011;1119;48.288;8.726;2024-02-16T09:37:21;20.10;;;2.40;;
2225;SDS011;1119;48.288;8.726;2024-02-16T09:39:48;20.23;;;2.57;;
2225;SDS011;1119;48.288;8.726;2024-02-16T09:42:16;20.30;;;2.80;;
2225;SDS011;1119;48.288;8.726;2024-02-16T09:44:43;20.37;;;2.70;;
2225;SDS011;1119;48.288;8.726;2024-02-16T09:47:12;20.30;;;2.60;;
2225;SDS011;1119;48.288;8.726;2024-02-16T09:49:46;20.30;;;2.80;;
2225;SDS011;1119;48.288;8.726;2024-02-16T09:52:14;20.33;;;2.63;;
2225;SDS011;1119;48.288;8.726;2024-02-16T09:54:42;20.30;;;2.60;;
2225;SDS011;1119;48.288;8.726;2024-02-16T09:57:09;20.30;;;2.63;;
2225;SDS011;1119;48.288;8.726;2024-02-16T09:59:36;20.30;;;2.63;;
2225;SDS011;1119;48.288;8.726;2024-02-16T10:02:04;20.37;;;2.47;;
2225;SDS011;1119;48.288;8.726;2024-02-16T10:04:32;20.27;;;2.53;;
2225;SDS011;1119;48.288;8.726;2024-02-16T10:07:01;20.30;;;2.90;;
2225;SDS011;1119;48.288;8.726;2024-02-16T10:09:29;20.33;;;2.70;;
2225;SDS011;1119;48.288;8.726;2024-02-16T10:11:57;20.20;;;2.50;;
2225;SDS011;1119;48.288;8.726;2024-02-16T10:14:25;20.20;;;2.50;;
2225;SDS011;1119;48.288;8.726;2024-02-16T10:16:59;20.30;;;2.73;;
2225;SDS011;1119;48.288;8.726;2024-02-16T10:19:28;20.30;;;2.77;;
2225;SDS011;1119;48.288;8.726;2024-02-16T10:22:07;20.10;;;2.63;;
2225;SDS011;1119;48.288;8.726;2024-02-16T10:24:35;20.30;;;2.57;;
2225;SDS011;1119;48.288;8.726;2024-02-16T10:27:04;20.50;;;2.97;;
2225;SDS011;1119;48.288;8.726;2024-02-16T10:29:32;20.40;;;2.83;;
2225;SDS011;1119;48.288;8.726;2024-02-16T10:32:00;20.43;;;3.10;;
2225;SDS011;1119;48.288;8.726;2024-02-16T10:34:28;20.40;;;2.97;;
2225;SDS011;1119;48.288;8.726;2024-02-16T10:36:58;20.47;;;3.03;;
2225;SDS011;1119;48.288;8.726;2024-02-16T10:39:28;20.50;;;2.90;;
2225;SDS011;1119;48.288;8.726;2024-02-16T10:41:55;20.40;;;2.90;;
2225;SDS011;1119;48.288;8.726;2024-02-16T10:44:25;20.50;;;3.10;;
2225;SDS011;1119;48.288;8.726;2024-02-16T10:46:55;20.30;;;2.60;;
2225;SDS011;1119;48.288;8.726;2024-02-16T10:49:22;20.40;;;2.73;;
2225;SDS011;1119;48.288;8.726;2024-02-16T10:51:52;20.37;;;2.77;;
2225;SDS011;1119;48.288;8.726;2024-02-16T10:54:23;20.37;;;2.87;;
2225;SDS011;1119;48.288;8.726;2024-02-16T10:56:57;20.23;;;2.80;;
2225;SDS011;1119;48.288;8.726;2024-02-16T10:59:24;20.37;;;2.57;;
2225;SDS011;1119;48.288;8.726;2024-02-16T11:01:59;20.30;;;2.60;;
2225;SDS011;1119;48.288;8.726;2024-02-16T11:04:35;20.33;;;3.00;;
2225;SDS011;1119;48.288;8.726;2024-02-16T11:07:10;20.30;;;2.67;;
2225;SDS011;1119;48.288;8.726;2024-02-16T11:09:39;20.50;;;3.10;;
2225;SDS011;1119;48.288;8.726;2024-02-16T11:12:07;20.40;;;2.93;;
2225;SDS011;1119;48.288;8.726;2024-02-16T11:14:37;20.40;;;3.03;;
2225;SDS011;1119;48.288;8.726;2024-02-16T11:17:08;20.20;;;2.60;;
2225;SDS011;1119;48.288;8.726;2024-02-16T11:19:36;20.50;;;3.10;;
2225;SDS011;1119;48.288;8.726;2024-02-16T11:22:04;20.43;;;2.93;;
2225;SDS011;1119;48.288;8.726;2024-02-16T11:24:34;20.53;;;3.13;;
2225;SDS011;1119;48.288;8.726;2024-02-16T11:27:03;20.50;;;3.00;;
2225;SDS011;1119;48.288;8.726;2024-02-16T11:29:32;20.30;;;3.00;;
2225;SDS011;1119;48.288;8.726;2024-02-16T11:32:04;20.43;;;2.73;;
2225;SDS011;1119;48.288;8.726;2024-02-16T11:34:32;20.50;;;3.10;;
2225;SDS011;1119;48.288;8.726;2024-02-16T11:37:03;20.67;;;3.10;;
2225;SDS011;1119;48.288;8.726;2024-02-16T11:39:31;20.60;;;3.10;;
2225;SDS011;1119;48.288;8.726;2024-02-16T11:42:01;20.63;;;3.20;;
2225;SDS011;1119;48.288;8.726;2024-02-16T11:44:32;20.57;;;2.53;;
2225;SDS011;1119;48.288;8.726;2024-02-16T11:47:02;20.53;;;2.97;;
2225;SDS011;1119;48.288;8.726;2024-02-16T11:49:32;20.67;;;3.17;;
2225;SDS011;1119;48.288;8.726;2024-02-16T11:51:59;20.70;;;3.07;;
2225;SDS011;1119;48.288;8.726;2024-02-16T11:54:27;20.70;;;3.20;;
2225;SDS011;1119;48.288;8.726;2024-02-16T11:56:55;20.70;;;2.93;;
2225;SDS011;1119;48.288;8.726;2024-02-16T11:59:24;20.73;;;3.30;;
2225;SDS011;1119;48.288;8.726;2024-02-16T12:01:51;20.77;;;3.10;;
2225;SDS011;1119;48.288;8.726;2024-02-16T12:04:21;20.60;;;3.20;;
2225;SDS011;1119;48.288;8.726;2024-02-16T12:06:52;20.60;;;3.40;;
2225;SDS011;1119;48.288;8.726;2024-02-16T12:09:22;20.70;;;3.30;;
2225;SDS011;1119;48.288;8.726;2024-02-16T12:11:50;20.57;;;3.13;;
2225;SDS011;1119;48.288;8.726;2024-02-16T12:14:21;20.80;;;3.37;;
2225;SDS011;1119;48.288;8.726;2024-02-16T12:16:51;20.80;;;3.23;;
2225;SDS011;1119;48.288;8.726;2024-02-16T12:19:22;20.47;;;3.00;;
2225;SDS011;1119;48.288;8.726;2024-02-16T12:21:51;20.73;;;2.93;;
2225;SDS011;1119;48.288;8.726;2024-02-16T12:24:19;20.70;;;3.27;;
2225;SDS011;1119;48.288;8.726;2024-02-16T12:26:47;20.70;;;3.10;;
2225;SDS011;1119;48.288;8.726;2024-02-16T12:29:14;20.70;;;2.83;;
2225;SDS011;1119;48.288;8.726;2024-02-16T12:31:44;20.70;;;3.20;;
2225;SDS011;1119;48.288;8.726;2024-02-16T12:34:13;20.77;;;3.17;;
2225;SDS011;1119;48.288;8.726;2024-02-16T12:36:40;20.63;;;3.20;;
2225;SDS011;1119;48.288;8.726;2024-02-16T12:39:11;20.70;;;2.97;;
2225;SDS011;1119;48.288;8.726;2024-02-16T12:41:40;20.70;;;3.13;;
2225;SDS011;1119;48.288;8.726;2024-02-16T12:44:08;20.70;;;3.10;;
2225;SDS011;1119;48.288;8.726;2024-02-16T12:46:35;20.63;;;2.90;;
2225;SDS011;1119;48.288;8.726;2024-02-16T12:49:05;20.60;;;2.90;;
2225;SDS011;1119;48.288;8.726;2024-02-16T12:51:33;20.60;;;2.80;;
2225;SDS011;1119;48.288;8.726;2024-02-16T12:54:00;20.57;;;2.60;;
2225;SDS011;1119;48.288;8.726;2024-02-16T12:56:30;20.60;;;3.10;;
2225;SDS011;1119;48.288;8.726;2024-02-16T12:58:57;20.60;;;2.90;;
2225;SDS011;1119;48.288;8.726;2024-02-16T13:01:25;20.53;;;3.20;;
2225;SDS011;1119;48.288;8.726;2024-02-16T13:03:53;20.50;;;2.83;;
2225;SDS011;1119;48.288;8.726;2024-02-16T13:06:21;20.40;;;2.80;;
2225;SDS011;1119;48.288;8.726;2024-02-16T13:08:49;20.57;;;2.93;;
2225;SDS011;1119;48.288;8.726;2024-02-16T13:11:17;20.50;;;2.67;;
2225;SDS011;1119;48.288;8.726;2024-02-16T13:13:45;20.60;;;3.20;;
2225;SDS011;1119;48.288;8.726;2024-02-16T13:16:12;20.77;;;3.20;;
2225;SDS011;1119;48.288;8.726;2024-02-16T13:18:39;20.57;;;3.07;;
2225;SDS011;1119;48.288;8.726;2024-02-16T13:21:07;20.50;;;3.07;;
2225;SDS011;1119;48.288;8.726;2024-02-16T13:23:35;20.67;;;3.23;;
2225;SDS011;1119;48.288;8.726;2024-02-16T13:26:03;20.50;;;2.73;;
2225;SDS011;1119;48.288;8.726;2024-02-16T13:28:31;20.53;;;2.73;;
2225;SDS011;1119;48.288;8.726;2024-02-16T13:30:58;20.57;;;2.67;;
2225;SDS011;1119;48.288;8.726;2024-02-16T13:33:26;20.60;;;3.00;;
2225;SDS011;1119;48.288;8.726;2024-02-16T13:35:53;20.60;;;2.90;;
2225;SDS011;1119;48.288;8.726;2024-02-16T13:38:20;20.40;;;2.53;;
2225;SDS011;1119;48.288;8.726;2024-02-16T13:40:49;20.40;;;2.83;;
2225;SDS011;1119;48.288;8.726;2024-02-16T13:43:17;20.57;;;3.00;;
2225;SDS011;1119;48.288;8.726;2024-02-16T13:45:48;20.57;;;3.10;;
2225;SDS011;1119;48.288;8.726;2024-02-16T13:48:17;20.57;;;2.80;;
2225;SDS011;1119;48.288;8.726;2024-02-16T13:50:45;20.57;;;2.80;;
2225;SDS011;1119;48.288;8.726;2024-02-16T13:53:13;20.40;;;2.50;;
2225;SDS011;1119;48.288;8.726;2024-02-16T13:55:41;20.50;;;3.00;;
2225;SDS011;1119;48.288;8.726;2024-02-16T13:58:10;20.47;;;2.57;;
2225;SDS011;1119;48.288;8.726;2024-02-16T14:00:38;20.50;;;3.00;;
2225;SDS011;1119;48.288;8.726;2024-02-16T14:03:05;20.53;;;2.77;;
2225;SDS011;1119;48.288;8.726;2024-02-16T14:05:35;20.50;;;2.80;;
2225;SDS011;1119;48.288;8.726;2024-02-16T14:08:03;20.50;;;2.60;;
2225;SDS011;1119;48.288;8.726;2024-02-16T14:10:32;20.53;;;2.77;;
2225;SDS011;1119;48.288;8.726;2024-02-16T14:12:59;20.47;;;2.80;;
2225;SDS011;1119;48.288;8.726;2024-02-16T14:15:29;20.47;;;2.60;;
2225;SDS011;1119;48.288;8.726;2024-02-16T14:17:56;20.20;;;2.93;;
2225;SDS011;1119;48.288;8.726;2024-02-16T14:20:23;20.50;;;2.90;;
2225;SDS011;1119;48.288;8.726;2024-02-16T14:22:51;20.47;;;3.00;;
2225;SDS011;1119;48.288;8.726;2024-02-16T14:25:18;20.40;;;2.90;;
2225;SDS011;1119;48.288;8.726;2024-02-16T14:27:45;20.43;;;2.80;;
2225;SDS011;1119;48.288;8.726;2024-02-16T14:30:13;20.43;;;2.60;;
2225;SDS011;1119;48.288;8.726;2024-02-16T14:32:42;20.30;;;2.60;;
2225;SDS011;1119;48.288;8.726;2024-02-16T14:35:09;20.37;;;2.87;;
2225;SDS011;1119;48.288;8.726;2024-02-16T14:37:37;20.30;;;2.93;;
2225;SDS011;1119;48.288;8.726;2024-02-16T14:40:05;20.40;;;2.90;;
2225;SDS011;1119;48.288;8.726;2024-02-16T14:42:35;20.27;;;2.67;;
2225;SDS011;1119;48.288;8.726;2024-02-16T14:45:05;20.37;;;2.50;;
2225;SDS011;1119;48.288;8.726;2024-02-16T14:47:35;20.30;;;2.77;;
2225;SDS011;1119;48.288;8.726;2024-02-16T14:50:04;20.20;;;2.67;;
2225;SDS011;1119;48.288;8.726;2024-02-16T14:52:33;20.43;;;2.87;;
2225;SDS011;1119;48.288;8.726;2024-02-16T14:55:00;20.40;;;2.90;;
2225;SDS011;1119;48.288;8.726;2024-02-16T14:57:28;20.30;;;2.50;;
2225;SDS011;1119;48.288;8.726;2024-02-16T14:59:55;20.17;;;2.93;;
2225;SDS011;1119;48.288;8.726;2024-02-16T15:02:23;20.33;;;2.60;;
2225;SDS011;1119;48.288;8.726;2024-02-16T15:04:50;20.43;;;3.00;;